Latest Coastal Weather Observations for Troughton Island

IDW60701

Issued at 8:13 pm WST Friday 28 April 2017 (issued every 10 minutes, with the page automatically refreshed every 10 minutes)

About coastal observations | Map of coastal stations | Coastal observations for WA | Marine services | Other Formats
Station Details ID: 001007 Name: TROUGHTON ISLAND Lat: -13.75 Lon: 126.15 Height: 6.0 m
Data from the previous 72 hours. | See also: Recent months at Troughton Island
Date/Time
WST
Temp
°C
Wind Pressure Rain since
9am
mm
Weather Cloud Vis
km
Sea
Height
m
Swell
Dir  Spd
kts
Gust
kts
hPa Trend Height
m
Period
s
Dir
28/08:00pm 25.7 ESE 24 29 1013.0 - 10.4 - - - - - - -
28/07:30pm 25.5 ESE 22 27 1013.0 - 10.4 - - - - - - -
28/07:00pm 24.7 ESE 21 27 1012.8 - 10.4 - - - - - - -
28/06:30pm 24.0 SE 22 29 1012.3 - 10.4 - - - - - - -
28/06:00pm 23.9 ESE 24 29 1012.2 - 10.4 Rain - - - - - -
28/05:30pm 24.1 ESE 27 32 1011.7 - 10.2 - - - - - - -
28/05:00pm 23.2 ESE 28 34 1011.6 - 10.2 - - - - - - -
28/04:30pm 22.9 ESE 26 32 1011.6 - 9.8 - - - - - - -
28/04:00pm 22.9 ESE 28 34 1011.6 - 9.2 - - - - - - -
28/03:30pm 22.9 ESE 29 33 1011.7 - 8.8 - - - - - - -
28/03:00pm 23.1 ESE 28 34 1011.5 - 7.6 Rain - - - - - -
28/02:30pm 23.1 ESE 28 35 1011.5 - 7.2 - - - - - - -
28/02:00pm 23.2 ESE 28 34 1011.8 - 6.6 - - - - - - -
28/01:30pm 23.4 ESE 29 35 1011.8 - 5.8 - - - - - - -
28/01:00pm 23.6 ESE 27 33 1011.8 - 5.4 - - - - - - -
28/12:30pm 23.2 ESE 28 36 1012.0 - 5.0 - - - - - - -
28/12:00pm 23.1 ESE 26 30 1012.4 - 3.8 Rain - - - - - -
28/11:30am 23.3 ESE 25 30 1012.6 - 3.4 - - - - - - -
28/11:00am 23.7 ESE 29 35 1012.9 - 2.6 - - - - - - -
28/10:30am 23.9 ESE 29 36 1013.1 - 1.8 - - - - - - -
28/10:00am 24.2 ESE 27 35 1013.5 - 1.2 - - - - - - -
28/09:30am 25.0 E 27 33 1013.5 - 0.2 - - - - - - -
28/09:08am 26.8 ESE 26 39 1013.2 - 0.0 - - - - - - -
28/09:00am 26.5 ESE 28 33 1013.2 - 0.6 Recent precip. - - - - - -
28/08:30am 25.6 ESE 26 34 1012.6 - 0.2 - - - - - - -
28/08:00am 28.1 ESE 28 34 1012.4 - 0.0 - - - - - - -
28/07:30am 28.8 SE 24 30 1012.1 - 0.0 - - - - - - -
28/07:00am 28.7 SE 23 29 1012.0 - 0.0 - - - - - - -
28/06:30am 28.6 SE 22 29 1011.5 - 0.0 - - - - - - -
28/06:00am 28.7 SE 23 27 1011.2 - 0.0 - - - - - - -
28/05:30am 28.4 SE 20 26 1011.1 - 0.0 - - - - - - -
28/05:00am 28.4 ESE 24 28 1010.8 - 0.0 - - - - - - -
28/04:30am 28.5 ESE 25 32 1010.5 - 0.0 - - - - - - -
28/04:00am 29.3 ESE 25 32 1010.5 - 0.0 - - - - - - -
28/03:30am 29.5 SE 21 29 1010.4 - 0.0 - - - - - - -
28/03:00am 29.3 SE 20 26 1010.2 - 0.0 - - - - - - -
28/02:30am 29.3 SE 21 26 1010.1 - 0.0 - - - - - - -
28/02:00am 29.5 SE 21 25 1010.3 - 0.0 - - - - - - -
28/01:30am 29.7 SE 20 24 1010.6 - 0.0 - - - - - - -
28/01:00am 29.6 SE 18 23 1010.7 - 0.0 - - - - - - -
28/12:30am 29.8 SE 17 22 1010.8 - 0.0 - - - - - - -
28/12:00am 29.9 SE 17 19 1011.0 - 0.0 - - - - - - -
 
Date/Time
WST
Temp
°C
Wind Pressure Rain since
9am
mm
Weather Cloud Vis
km
Sea
Height
m
Swell
Dir  Spd
kts
Gust
kts
hPa Trend Height
m
Period
s
Dir
27/11:30pm 29.8 SE 15 18 1011.2 - 0.0 - - - - - - -
27/11:00pm 29.9 SE 15 19 1011.5 - 0.0 - - - - - - -
27/10:30pm 30.0 SE 15 18 1011.6 - 0.0 - - - - - - -
27/10:00pm 30.2 SE 15 19 1011.7 - 0.0 - - - - - - -
27/09:30pm 30.2 SE 15 19 1011.7 - 0.0 - - - - - - -
27/09:00pm 30.4 SE 16 20 1011.7 - 0.0 - - - - - - -
27/08:30pm 30.5 SE 16 19 1011.7 - 0.0 - - - - - - -
27/08:00pm 30.6 SE 13 18 1011.7 - 0.0 - - - - - - -
27/07:30pm 30.7 ESE 17 20 1011.3 - 0.0 - - - - - - -
27/07:00pm 30.6 ESE 15 18 1011.0 - 0.0 - - - - - - -
27/06:30pm 30.2 E 13 16 1010.6 - 0.0 - - - - - - -
27/06:00pm 30.6 E 15 19 1010.2 - 0.0 - - - - - - -
27/05:30pm 30.9 E 20 24 1010.0 - 0.0 - - - - - - -
27/05:00pm 30.9 E 17 21 1009.7 - 0.0 - - - - - - -
27/04:30pm 30.9 E 17 21 1009.4 - 0.0 - - - - - - -
27/04:00pm 30.7 ENE 17 21 1009.2 - 0.0 - - - - - - -
27/03:30pm 30.7 ENE 17 22 1009.0 - 0.0 - - - - - - -
27/03:00pm 31.3 E 15 18 1009.1 - 0.0 - - - - - - -
27/02:30pm 32.0 E 16 19 1009.1 - 0.0 - - - - - - -
27/02:00pm 31.8 ENE 15 21 1009.1 - 0.0 - - - - - - -
27/01:30pm 31.9 ENE 18 21 1009.4 - 0.0 - - - - - - -
27/01:00pm 31.9 ENE 19 23 1009.8 - 0.0 - - - - - - -
27/12:30pm 31.9 ENE 21 26 1010.1 - 0.0 - - - - - - -
27/12:00pm 32.0 ENE 21 26 1010.3 - 0.0 - - - - - - -
27/11:30am 32.3 ENE 21 25 1011.0 - 0.0 - - - - - - -
27/11:00am 32.4 ENE 18 22 1011.6 - 0.0 - - - - - - -
27/10:30am 33.4 E 14 17 1011.8 - 0.0 - - - - - - -
27/10:00am 33.0 E 15 19 1012.3 - 0.0 - - - - - - -
27/09:30am 32.8 ESE 13 16 1012.4 - 0.0 - - - - - - -
27/09:00am 32.7 ESE 13 17 1012.5 - 0.0 - - - - - - -
27/08:30am 32.0 SE 13 15 1012.4 - 0.0 - - - - - - -
27/08:00am 31.6 SE 11 14 1012.2 - 0.0 - - - - - - -
27/07:30am 31.1 SSE 10 12 1012.2 - 0.0 - - - - - - -
27/07:00am 30.0 SSE 8 9 1011.9 - 0.0 - - - - - - -
27/06:30am 29.5 S 8 9 1011.5 - 0.0 - - - - - - -
27/06:00am 28.7 SSE 8 9 1010.9 - 0.0 - - - - - - -
27/05:30am 28.6 S 7 9 1010.7 - 0.0 - - - - - - -
27/05:00am 28.9 S 9 11 1010.4 - 0.0 - - - - - - -
27/04:30am 28.8 SSW 9 11 1010.3 - 0.0 - - - - - - -
27/04:00am 28.7 SSW 9 10 1010.1 - 0.0 - - - - - - -
27/03:30am 28.8 SSW 7 9 1010.0 - 0.0 - - - - - - -
27/03:00am 28.7 SSW 7 8 1009.9 - 0.0 - - - - - - -
27/02:30am 28.7 SSW 6 6 1010.0 - 0.0 - - - - - - -
27/02:00am 28.9 SW 8 10 1010.1 - 0.0 - - - - - - -
27/01:30am 28.8 SSW 10 11 1010.1 - 0.0 - - - - - - -
27/01:00am 28.8 SSW 10 12 1010.3 - 0.0 - - - - - - -
27/12:30am 29.1 S 6 7 1010.7 - 0.0 - - - - - - -
27/12:00am 28.8 SE 5 6 1010.8 - 0.0 - - - - - - -
 
Date/Time
WST
Temp
°C
Wind Pressure Rain since
9am
mm
Weather Cloud Vis
km
Sea
Height
m
Swell
Dir  Spd
kts
Gust
kts
hPa Trend Height
m
Period
s
Dir
26/11:30pm 29.0 SE 5 6 1011.0 - 0.0 - - - - - - -
26/11:00pm 29.2 E 6 7 1011.2 - 0.0 - - - - - - -
26/10:30pm 29.5 ENE 8 9 1011.4 - 0.0 - - - - - - -
26/10:00pm 29.6 ENE 9 11 1011.6 - 0.0 - - - - - - -
26/09:30pm 29.6 NE 9 11 1011.8 - 0.0 - - - - - - -
26/09:00pm 29.7 ENE 10 13 1011.9 - 0.0 - - - - - - -
26/08:30pm 29.8 NE 11 14 1011.8 - 0.0 - - - - - - -
26/08:00pm 29.9 ENE 12 15 1011.5 - 0.0 - - - - - - -
26/07:30pm 29.8 ENE 13 15 1011.1 - 0.0 - - - - - - -
26/07:00pm 29.7 NE 11 13 1010.7 - 0.0 - - - - - - -
26/06:30pm 29.7 NE 11 15 1010.1 - 0.0 - - - - - - -
26/06:00pm 29.9 NE 11 13 1009.7 - 0.0 - - - - - - -
26/05:30pm 30.0 NE 11 13 1009.5 - 0.0 - - - - - - -
26/05:00pm 30.6 NE 10 13 1009.3 - 0.0 - - - - - - -
26/04:30pm 31.2 NE 9 11 1009.0 - 0.0 - - - - - - -
26/04:00pm 31.5 NE 9 11 1008.9 - 0.0 - - - - - - -
26/03:30pm 32.1 NE 9 11 1008.7 - 0.0 - - - - - - -
26/03:00pm 32.5 NE 9 11 1008.4 - 0.0 - - - - - - -
26/02:30pm 33.2 NE 8 11 1008.6 - 0.0 - - - - - - -
26/02:00pm 33.3 NE 8 10 1008.9 - 0.0 - - - - - - -
26/01:30pm 32.9 NE 7 9 1009.2 - 0.0 - - - - - - -
26/01:00pm 32.9 NE 8 9 1009.6 - 0.0 - - - - - - -
26/12:30pm 32.8 ENE 6 7 1009.9 - 0.0 - - - - - - -
26/12:00pm 33.3 E 7 8 1010.1 - 0.0 - - - - - - -
26/11:30am 33.8 ESE 6 8 1010.5 - 0.0 - - - - - - -
26/11:00am 33.3 SSE 6 8 1010.8 - 0.0 - - - - - - -
26/10:30am 32.1 SSE 6 8 1011.1 - 0.0 - - - - - - -
26/10:00am 32.2 SE 6 8 1011.4 - 0.0 - - - - - - -
26/09:30am 31.4 SE 6 8 1011.4 - 0.0 - - - - - - -
26/09:00am 31.1 SSE 6 8 1011.6 - 0.0 - - - - - - -
26/08:30am 31.4 S 7 8 1011.6 - 0.0 - - - - - - -
26/08:00am 31.0 S 8 9 1011.7 - 0.0 - - - - - - -
26/07:30am 30.8 SSW 8 9 1011.8 - 0.0 - - - - - - -
26/07:00am 30.4 SSW 9 11 1011.7 - 0.0 - - - - - - -
26/06:30am 29.6 SW 9 11 1011.2 - 0.0 - - - - - - -
26/06:00am 29.1 SW 9 11 1010.9 - 0.0 - - - - - - -
26/05:30am 29.0 SW 11 14 1010.4 - 0.0 - - - - - - -
26/05:00am 29.1 SW 12 14 1010.2 - 0.0 - - - - - - -
26/04:30am 29.1 SW 12 14 1010.1 - 0.0 - - - - - - -
26/04:00am 29.1 SW 12 14 1010.1 - 0.0 - - - - - - -
26/03:30am 29.1 SW 11 13 1010.2 - 0.0 - - - - - - -
26/03:00am 29.0 SW 10 11 1010.2 - 0.0 - - - - - - -
26/02:30am 28.9 WSW 9 11 1010.5 - 0.0 - - - - - - -
26/02:00am 29.0 WSW 10 11 1010.6 - 0.0 - - - - - - -
26/01:30am 29.0 WSW 8 9 1010.8 - 0.0 - - - - - - -
26/01:00am 28.9 WSW 7 8 1011.2 - 0.0 - - - - - - -
26/12:30am 28.7 W 5 6 1011.4 - 0.0 - - - - - - -
26/12:00am 28.6 W 4 5 1011.7 - 0.0 - - - - - - -
 
Date/Time
WST
Temp
°C
Wind Pressure Rain since
9am
mm
Weather Cloud Vis
km
Sea
Height
m
Swell
Dir  Spd
kts
Gust
kts
hPa Trend Height
m
Period
s
Dir
25/11:30pm 28.7 WSW 4 4 1012.1 - 0.0 - - - - - - -
25/11:00pm 29.0 SW 5 6 1012.3 - 0.0 - - - - - - -
25/10:30pm 29.1 SW 5 6 1012.4 - 0.0 - - - - - - -
25/10:00pm 29.3 SW 5 6 1012.5 - 0.0 - - - - - - -
25/09:30pm 29.5 WSW 7 7 1012.6 - 0.0 - - - - - - -
25/09:00pm 29.5 WSW 6 7 1012.7 - 0.0 - - - - - - -
25/08:30pm 29.4 WSW 5 7 1012.7 - 0.0 - - - - - - -

Other Formats:

Comma delimited format used in spreadsheet applications
http://www.bom.gov.au/fwo/IDW60701/IDW60701.94102.axf

JavaScript Object Notation format (JSON) in row-major order
http://www.bom.gov.au/fwo/IDW60701/IDW60701.94102.json